sensor_id;sensor_type;location;lat;lon;timestamp;temperature;humidity
50067;DHT22;35952;52.524;13.340;2023-04-25T00:02:02;9.80;99.90
50067;DHT22;35952;52.524;13.340;2023-04-25T00:04:28;9.90;99.90
50067;DHT22;35952;52.524;13.340;2023-04-25T00:06:55;9.90;99.90
50067;DHT22;35952;52.524;13.340;2023-04-25T00:09:21;10.00;99.90
50067;DHT22;35952;52.524;13.340;2023-04-25T00:11:47;10.10;99.90
50067;DHT22;35952;52.524;13.340;2023-04-25T00:14:12;10.00;99.90
50067;DHT22;35952;52.524;13.340;2023-04-25T00:16:38;10.00;99.90
50067;DHT22;35952;52.524;13.340;2023-04-25T00:19:04;10.00;99.90
50067;DHT22;35952;52.524;13.340;2023-04-25T00:21:30;10.00;99.90
50067;DHT22;35952;52.524;13.340;2023-04-25T00:23:56;10.00;99.90
50067;DHT22;35952;52.524;13.340;2023-04-25T00:26:22;10.00;99.90
50067;DHT22;35952;52.524;13.340;2023-04-25T00:28:48;10.00;99.90
50067;DHT22;35952;52.524;13.340;2023-04-25T00:31:14;10.00;99.90
50067;DHT22;35952;52.524;13.340;2023-04-25T00:33:39;10.10;99.90
50067;DHT22;35952;52.524;13.340;2023-04-25T00:36:06;10.10;99.90
50067;DHT22;35952;52.524;13.340;2023-04-25T00:38:31;10.00;99.90
50067;DHT22;35952;52.524;13.340;2023-04-25T00:40:57;10.00;99.90
50067;DHT22;35952;52.524;13.340;2023-04-25T00:43:26;10.00;99.90
50067;DHT22;35952;52.524;13.340;2023-04-25T00:45:52;10.00;99.90
50067;DHT22;35952;52.524;13.340;2023-04-25T00:48:19;9.90;99.90
50067;DHT22;35952;52.524;13.340;2023-04-25T00:50:52;9.90;99.90
50067;DHT22;35952;52.524;13.340;2023-04-25T00:53:18;10.00;99.90
50067;DHT22;35952;52.524;13.340;2023-04-25T00:55:43;10.00;99.90
50067;DHT22;35952;52.524;13.340;2023-04-25T00:58:09;10.10;99.90
50067;DHT22;35952;52.524;13.340;2023-04-25T01:00:35;10.00;99.90
50067;DHT22;35952;52.524;13.340;2023-04-25T01:03:01;10.00;99.90
50067;DHT22;35952;52.524;13.340;2023-04-25T01:05:27;10.00;99.90
50067;DHT22;35952;52.524;13.340;2023-04-25T01:07:53;10.00;99.90
50067;DHT22;35952;52.524;13.340;2023-04-25T01:10:19;10.00;99.90
50067;DHT22;35952;52.524;13.340;2023-04-25T01:12:44;10.00;99.90
50067;DHT22;35952;52.524;13.340;2023-04-25T01:15:10;10.00;99.90
50067;DHT22;35952;52.524;13.340;2023-04-25T01:17:35;10.00;99.90
50067;DHT22;35952;52.524;13.340;2023-04-25T01:20:03;10.00;99.90
50067;DHT22;35952;52.524;13.340;2023-04-25T01:22:30;10.00;99.90
50067;DHT22;35952;52.524;13.340;2023-04-25T01:24:55;9.90;99.90
50067;DHT22;35952;52.524;13.340;2023-04-25T01:27:22;10.00;99.90
50067;DHT22;35952;52.524;13.340;2023-04-25T01:29:48;9.90;99.90
50067;DHT22;35952;52.524;13.340;2023-04-25T01:32:15;9.90;99.90
50067;DHT22;35952;52.524;13.340;2023-04-25T01:34:40;9.90;99.90
50067;DHT22;35952;52.524;13.340;2023-04-25T01:37:06;9.90;99.90
50067;DHT22;35952;52.524;13.340;2023-04-25T01:39:31;10.00;99.90
50067;DHT22;35952;52.524;13.340;2023-04-25T01:41:59;10.00;99.90
50067;DHT22;35952;52.524;13.340;2023-04-25T01:44:25;9.90;99.90
50067;DHT22;35952;52.524;13.340;2023-04-25T01:46:51;9.90;99.90
50067;DHT22;35952;52.524;13.340;2023-04-25T01:49:16;9.90;99.90
50067;DHT22;35952;52.524;13.340;2023-04-25T01:51:42;10.00;99.90
50067;DHT22;35952;52.524;13.340;2023-04-25T01:54:08;9.90;99.90
50067;DHT22;35952;52.524;13.340;2023-04-25T01:56:37;10.00;99.90
50067;DHT22;35952;52.524;13.340;2023-04-25T01:59:04;9.90;99.90
50067;DHT22;35952;52.524;13.340;2023-04-25T02:01:29;9.90;99.90
50067;DHT22;35952;52.524;13.340;2023-04-25T02:03:55;9.90;99.90
50067;DHT22;35952;52.524;13.340;2023-04-25T02:06:21;9.90;99.90
50067;DHT22;35952;52.524;13.340;2023-04-25T02:08:46;9.90;99.90
50067;DHT22;35952;52.524;13.340;2023-04-25T02:11:12;9.80;99.90
50067;DHT22;35952;52.524;13.340;2023-04-25T02:13:37;9.70;99.90
50067;DHT22;35952;52.524;13.340;2023-04-25T02:16:03;9.80;99.90
50067;DHT22;35952;52.524;13.340;2023-04-25T02:18:29;9.80;99.90
50067;DHT22;35952;52.524;13.340;2023-04-25T02:20:54;9.70;99.90
50067;DHT22;35952;52.524;13.340;2023-04-25T02:23:20;9.60;99.90
50067;DHT22;35952;52.524;13.340;2023-04-25T02:25:45;9.70;99.90
50067;DHT22;35952;52.524;13.340;2023-04-25T02:28:11;9.70;99.90
50067;DHT22;35952;52.524;13.340;2023-04-25T02:30:37;9.70;99.90
50067;DHT22;35952;52.524;13.340;2023-04-25T02:33:03;9.70;99.90
50067;DHT22;35952;52.524;13.340;2023-04-25T02:35:28;9.70;99.90
50067;DHT22;35952;52.524;13.340;2023-04-25T02:37:53;9.60;99.90
50067;DHT22;35952;52.524;13.340;2023-04-25T02:40:19;9.70;99.90
50067;DHT22;35952;52.524;13.340;2023-04-25T02:42:45;9.60;99.90
50067;DHT22;35952;52.524;13.340;2023-04-25T02:45:14;9.70;99.90
50067;DHT22;35952;52.524;13.340;2023-04-25T02:47:39;9.60;99.90
50067;DHT22;35952;52.524;13.340;2023-04-25T02:50:05;9.70;99.90
50067;DHT22;35952;52.524;13.340;2023-04-25T02:52:31;9.70;99.90
50067;DHT22;35952;52.524;13.340;2023-04-25T02:54:57;9.70;99.90
50067;DHT22;35952;52.524;13.340;2023-04-25T02:57:22;9.70;99.90
50067;DHT22;35952;52.524;13.340;2023-04-25T02:59:48;9.70;99.90
50067;DHT22;35952;52.524;13.340;2023-04-25T03:02:13;9.70;99.90
50067;DHT22;35952;52.524;13.340;2023-04-25T03:04:39;9.70;99.90
50067;DHT22;35952;52.524;13.340;2023-04-25T03:07:05;9.60;99.90
50067;DHT22;35952;52.524;13.340;2023-04-25T03:09:33;9.50;99.90
50067;DHT22;35952;52.524;13.340;2023-04-25T03:11:59;9.60;99.90
50067;DHT22;35952;52.524;13.340;2023-04-25T03:14:24;9.60;99.90
50067;DHT22;35952;52.524;13.340;2023-04-25T03:16:50;9.60;99.90
50067;DHT22;35952;52.524;13.340;2023-04-25T03:19:15;9.50;99.90
50067;DHT22;35952;52.524;13.340;2023-04-25T03:21:42;9.50;99.90
50067;DHT22;35952;52.524;13.340;2023-04-25T03:24:07;9.60;99.90
50067;DHT22;35952;52.524;13.340;2023-04-25T03:26:33;9.50;99.90
50067;DHT22;35952;52.524;13.340;2023-04-25T03:28:58;9.50;99.90
50067;DHT22;35952;52.524;13.340;2023-04-25T03:31:24;9.50;99.90
50067;DHT22;35952;52.524;13.340;2023-04-25T03:33:50;9.50;99.90
50067;DHT22;35952;52.524;13.340;2023-04-25T03:36:15;9.40;99.90
50067;DHT22;35952;52.524;13.340;2023-04-25T03:38:41;9.50;99.90
50067;DHT22;35952;52.524;13.340;2023-04-25T03:41:07;9.50;99.90
50067;DHT22;35952;52.524;13.340;2023-04-25T03:43:32;9.50;99.90
50067;DHT22;35952;52.524;13.340;2023-04-25T03:45:58;9.50;99.90
50067;DHT22;35952;52.524;13.340;2023-04-25T03:48:24;9.50;99.90
50067;DHT22;35952;52.524;13.340;2023-04-25T03:50:51;9.50;99.90
50067;DHT22;35952;52.524;13.340;2023-04-25T03:53:17;9.60;99.90
50067;DHT22;35952;52.524;13.340;2023-04-25T03:55:42;9.60;99.90
50067;DHT22;35952;52.524;13.340;2023-04-25T03:58:08;9.60;99.90
50067;DHT22;35952;52.524;13.340;2023-04-25T04:00:34;9.60;99.90
50067;DHT22;35952;52.524;13.340;2023-04-25T04:03:00;9.60;99.90
50067;DHT22;35952;52.524;13.340;2023-04-25T04:05:25;9.50;99.90
50067;DHT22;35952;52.524;13.340;2023-04-25T04:07:51;9.50;99.90
50067;DHT22;35952;52.524;13.340;2023-04-25T04:10:17;9.50;99.90
50067;DHT22;35952;52.524;13.340;2023-04-25T04:12:42;9.60;99.90
50067;DHT22;35952;52.524;13.340;2023-04-25T04:15:08;9.60;99.90
50067;DHT22;35952;52.524;13.340;2023-04-25T04:17:35;9.60;99.90
50067;DHT22;35952;52.524;13.340;2023-04-25T04:20:00;9.60;99.90
50067;DHT22;35952;52.524;13.340;2023-04-25T04:22:26;9.60;99.90
50067;DHT22;35952;52.524;13.340;2023-04-25T04:24:51;9.60;99.90
50067;DHT22;35952;52.524;13.340;2023-04-25T04:27:18;9.60;99.90
50067;DHT22;35952;52.524;13.340;2023-04-25T04:29:44;9.60;99.90
50067;DHT22;35952;52.524;13.340;2023-04-25T04:32:10;9.60;99.90
50067;DHT22;35952;52.524;13.340;2023-04-25T04:34:36;9.60;99.90
50067;DHT22;35952;52.524;13.340;2023-04-25T04:37:01;9.60;99.90
50067;DHT22;35952;52.524;13.340;2023-04-25T04:39:27;9.60;99.90
50067;DHT22;35952;52.524;13.340;2023-04-25T04:41:53;9.70;99.90
50067;DHT22;35952;52.524;13.340;2023-04-25T04:44:19;9.70;99.90
50067;DHT22;35952;52.524;13.340;2023-04-25T04:46:45;9.70;99.90
50067;DHT22;35952;52.524;13.340;2023-04-25T04:49:12;9.80;99.90
50067;DHT22;35952;52.524;13.340;2023-04-25T04:51:39;9.70;99.90
50067;DHT22;35952;52.524;13.340;2023-04-25T04:54:05;9.80;99.90
50067;DHT22;35952;52.524;13.340;2023-04-25T04:56:31;9.80;99.90
50067;DHT22;35952;52.524;13.340;2023-04-25T04:58:57;9.90;99.90
50067;DHT22;35952;52.524;13.340;2023-04-25T05:01:23;10.00;99.90
50067;DHT22;35952;52.524;13.340;2023-04-25T05:03:49;10.00;99.90
50067;DHT22;35952;52.524;13.340;2023-04-25T05:06:16;10.00;99.90
50067;DHT22;35952;52.524;13.340;2023-04-25T05:08:42;9.90;99.90
50067;DHT22;35952;52.524;13.340;2023-04-25T05:11:07;9.90;99.90
50067;DHT22;35952;52.524;13.340;2023-04-25T05:13:33;10.00;99.90
50067;DHT22;35952;52.524;13.340;2023-04-25T05:15:58;10.00;99.90
50067;DHT22;35952;52.524;13.340;2023-04-25T05:18:24;10.10;99.90
50067;DHT22;35952;52.524;13.340;2023-04-25T05:20:49;10.10;99.90
50067;DHT22;35952;52.524;13.340;2023-04-25T05:23:15;10.10;99.90
50067;DHT22;35952;52.524;13.340;2023-04-25T05:25:41;10.10;99.90
50067;DHT22;35952;52.524;13.340;2023-04-25T05:28:07;10.10;99.90
50067;DHT22;35952;52.524;13.340;2023-04-25T05:30:33;10.10;99.90
50067;DHT22;35952;52.524;13.340;2023-04-25T05:32:59;10.10;99.90
50067;DHT22;35952;52.524;13.340;2023-04-25T05:35:24;10.00;99.90
50067;DHT22;35952;52.524;13.340;2023-04-25T05:37:50;10.00;99.90
50067;DHT22;35952;52.524;13.340;2023-04-25T05:40:15;10.00;99.90
50067;DHT22;35952;52.524;13.340;2023-04-25T05:42:41;10.00;99.90
50067;DHT22;35952;52.524;13.340;2023-04-25T05:45:07;10.00;99.90
50067;DHT22;35952;52.524;13.340;2023-04-25T05:47:32;10.00;99.90
50067;DHT22;35952;52.524;13.340;2023-04-25T05:49:58;10.10;99.90
50067;DHT22;35952;52.524;13.340;2023-04-25T05:52:23;10.10;99.90
50067;DHT22;35952;52.524;13.340;2023-04-25T05:54:49;10.10;99.90
50067;DHT22;35952;52.524;13.340;2023-04-25T05:57:25;10.10;99.90
50067;DHT22;35952;52.524;13.340;2023-04-25T05:59:52;10.20;99.90
50067;DHT22;35952;52.524;13.340;2023-04-25T06:02:19;10.20;99.90
50067;DHT22;35952;52.524;13.340;2023-04-25T06:04:45;10.20;99.90
50067;DHT22;35952;52.524;13.340;2023-04-25T06:07:11;10.20;99.90
50067;DHT22;35952;52.524;13.340;2023-04-25T06:09:36;10.10;99.90
50067;DHT22;35952;52.524;13.340;2023-04-25T06:12:04;10.10;99.90
50067;DHT22;35952;52.524;13.340;2023-04-25T06:14:30;10.10;99.90
50067;DHT22;35952;52.524;13.340;2023-04-25T06:16:56;10.30;99.90
50067;DHT22;35952;52.524;13.340;2023-04-25T06:19:22;10.30;99.90
50067;DHT22;35952;52.524;13.340;2023-04-25T06:21:48;10.40;99.90
50067;DHT22;35952;52.524;13.340;2023-04-25T06:24:13;10.40;99.90
50067;DHT22;35952;52.524;13.340;2023-04-25T06:26:39;10.40;99.90
50067;DHT22;35952;52.524;13.340;2023-04-25T06:29:04;10.40;99.90
50067;DHT22;35952;52.524;13.340;2023-04-25T06:31:30;10.40;99.90
50067;DHT22;35952;52.524;13.340;2023-04-25T06:33:57;10.50;99.90
50067;DHT22;35952;52.524;13.340;2023-04-25T06:36:23;10.50;99.90
50067;DHT22;35952;52.524;13.340;2023-04-25T06:38:53;10.50;99.90
50067;DHT22;35952;52.524;13.340;2023-04-25T06:41:20;10.50;99.90
50067;DHT22;35952;52.524;13.340;2023-04-25T06:43:46;10.40;99.90
50067;DHT22;35952;52.524;13.340;2023-04-25T06:46:11;10.40;99.90
50067;DHT22;35952;52.524;13.340;2023-04-25T06:48:37;10.30;99.90
50067;DHT22;35952;52.524;13.340;2023-04-25T06:51:03;10.30;99.90
50067;DHT22;35952;52.524;13.340;2023-04-25T06:53:28;10.30;99.90
50067;DHT22;35952;52.524;13.340;2023-04-25T06:55:54;10.30;99.90
50067;DHT22;35952;52.524;13.340;2023-04-25T06:58:19;10.40;99.90
50067;DHT22;35952;52.524;13.340;2023-04-25T07:00:45;10.40;99.90
50067;DHT22;35952;52.524;13.340;2023-04-25T07:03:11;10.30;99.90
50067;DHT22;35952;52.524;13.340;2023-04-25T07:05:37;10.30;99.90
50067;DHT22;35952;52.524;13.340;2023-04-25T07:08:02;10.30;99.90
50067;DHT22;35952;52.524;13.340;2023-04-25T07:10:28;10.20;99.90
50067;DHT22;35952;52.524;13.340;2023-04-25T07:12:53;10.20;99.90
50067;DHT22;35952;52.524;13.340;2023-04-25T07:15:19;10.10;99.90
50067;DHT22;35952;52.524;13.340;2023-04-25T07:17:45;10.00;99.90
50067;DHT22;35952;52.524;13.340;2023-04-25T07:20:10;10.00;99.90
50067;DHT22;35952;52.524;13.340;2023-04-25T07:22:36;10.00;99.90
50067;DHT22;35952;52.524;13.340;2023-04-25T07:25:02;10.00;99.90
50067;DHT22;35952;52.524;13.340;2023-04-25T07:27:29;10.00;99.90
50067;DHT22;35952;52.524;13.340;2023-04-25T07:29:55;10.10;99.90
50067;DHT22;35952;52.524;13.340;2023-04-25T07:32:21;10.20;99.90
50067;DHT22;35952;52.524;13.340;2023-04-25T07:34:46;10.30;99.90
50067;DHT22;35952;52.524;13.340;2023-04-25T07:37:12;10.30;99.90
50067;DHT22;35952;52.524;13.340;2023-04-25T07:39:39;10.30;99.90
50067;DHT22;35952;52.524;13.340;2023-04-25T07:42:05;10.40;99.90
50067;DHT22;35952;52.524;13.340;2023-04-25T07:44:33;10.50;99.90
50067;DHT22;35952;52.524;13.340;2023-04-25T07:47:06;10.50;99.90
50067;DHT22;35952;52.524;13.340;2023-04-25T07:49:33;10.60;99.90
50067;DHT22;35952;52.524;13.340;2023-04-25T07:52:00;10.60;99.90
50067;DHT22;35952;52.524;13.340;2023-04-25T07:54:26;10.70;99.90
50067;DHT22;35952;52.524;13.340;2023-04-25T07:56:51;10.60;99.90
50067;DHT22;35952;52.524;13.340;2023-04-25T07:59:17;10.80;99.90
50067;DHT22;35952;52.524;13.340;2023-04-25T08:01:42;10.90;99.90
50067;DHT22;35952;52.524;13.340;2023-04-25T08:04:08;10.90;99.90
50067;DHT22;35952;52.524;13.340;2023-04-25T08:06:33;10.90;99.90
50067;DHT22;35952;52.524;13.340;2023-04-25T08:08:59;11.00;99.90
50067;DHT22;35952;52.524;13.340;2023-04-25T08:11:25;11.40;99.90
50067;DHT22;35952;52.524;13.340;2023-04-25T08:13:50;11.60;99.90
50067;DHT22;35952;52.524;13.340;2023-04-25T08:16:16;11.70;99.90
50067;DHT22;35952;52.524;13.340;2023-04-25T08:18:41;11.70;99.90
50067;DHT22;35952;52.524;13.340;2023-04-25T08:21:07;11.70;99.90
50067;DHT22;35952;52.524;13.340;2023-04-25T08:23:34;11.70;99.90
50067;DHT22;35952;52.524;13.340;2023-04-25T08:25:59;11.80;99.90
50067;DHT22;35952;52.524;13.340;2023-04-25T08:28:25;12.20;99.90
50067;DHT22;35952;52.524;13.340;2023-04-25T08:30:51;12.40;99.90
50067;DHT22;35952;52.524;13.340;2023-04-25T08:33:16;12.60;99.90
50067;DHT22;35952;52.524;13.340;2023-04-25T08:35:42;12.40;99.90
50067;DHT22;35952;52.524;13.340;2023-04-25T08:38:07;12.30;99.90
50067;DHT22;35952;52.524;13.340;2023-04-25T08:40:38;12.30;99.90
50067;DHT22;35952;52.524;13.340;2023-04-25T08:43:04;12.40;99.90
50067;DHT22;35952;52.524;13.340;2023-04-25T08:45:39;12.30;99.90
50067;DHT22;35952;52.524;13.340;2023-04-25T08:48:13;12.50;99.40
50067;DHT22;35952;52.524;13.340;2023-04-25T08:50:53;13.90;99.20
50067;DHT22;35952;52.524;13.340;2023-04-25T08:53:26;15.20;82.00
50067;DHT22;35952;52.524;13.340;2023-04-25T08:55:54;15.50;70.30
50067;DHT22;35952;52.524;13.340;2023-04-25T08:58:20;15.60;71.50
50067;DHT22;35952;52.524;13.340;2023-04-25T09:00:46;16.20;69.20
50067;DHT22;35952;52.524;13.340;2023-04-25T09:03:13;17.60;59.40
50067;DHT22;35952;52.524;13.340;2023-04-25T09:05:40;18.80;53.90
50067;DHT22;35952;52.524;13.340;2023-04-25T09:08:05;19.90;49.00
50067;DHT22;35952;52.524;13.340;2023-04-25T09:10:32;21.20;47.10
50067;DHT22;35952;52.524;13.340;2023-04-25T09:13:05;22.30;43.70
50067;DHT22;35952;52.524;13.340;2023-04-25T09:15:31;23.00;40.70
50067;DHT22;35952;52.524;13.340;2023-04-25T09:17:58;23.10;40.80
50067;DHT22;35952;52.524;13.340;2023-04-25T09:20:23;22.40;40.20
50067;DHT22;35952;52.524;13.340;2023-04-25T09:23:01;21.20;40.60
50067;DHT22;35952;52.524;13.340;2023-04-25T09:25:34;20.10;43.20
50067;DHT22;35952;52.524;13.340;2023-04-25T09:28:04;19.30;43.70
50067;DHT22;35952;52.524;13.340;2023-04-25T09:30:31;17.90;45.00
50067;DHT22;35952;52.524;13.340;2023-04-25T09:32:59;17.20;47.20
50067;DHT22;35952;52.524;13.340;2023-04-25T09:35:28;17.90;46.50
50067;DHT22;35952;52.524;13.340;2023-04-25T09:37:55;18.30;45.80
50067;DHT22;35952;52.524;13.340;2023-04-25T09:40:20;18.00;44.40
50067;DHT22;35952;52.524;13.340;2023-04-25T09:42:46;16.80;43.90
50067;DHT22;35952;52.524;13.340;2023-04-25T09:45:13;15.90;44.80
50067;DHT22;35952;52.524;13.340;2023-04-25T09:47:41;15.30;46.20
50067;DHT22;35952;52.524;13.340;2023-04-25T09:50:17;14.30;47.00
50067;DHT22;35952;52.524;13.340;2023-04-25T09:52:44;14.00;48.40
50067;DHT22;35952;52.524;13.340;2023-04-25T09:55:09;13.80;49.00
50067;DHT22;35952;52.524;13.340;2023-04-25T09:57:35;13.60;49.80
50067;DHT22;35952;52.524;13.340;2023-04-25T10:00:05;13.60;50.40
50067;DHT22;35952;52.524;13.340;2023-04-25T10:02:35;13.50;50.30
50067;DHT22;35952;52.524;13.340;2023-04-25T10:05:01;14.30;51.00
50067;DHT22;35952;52.524;13.340;2023-04-25T10:07:30;15.00;48.70
50067;DHT22;35952;52.524;13.340;2023-04-25T10:10:00;15.30;48.20
50067;DHT22;35952;52.524;13.340;2023-04-25T10:12:27;15.10;47.90
50067;DHT22;35952;52.524;13.340;2023-04-25T10:14:52;14.90;48.40
50067;DHT22;35952;52.524;13.340;2023-04-25T10:17:20;14.90;48.50
50067;DHT22;35952;52.524;13.340;2023-04-25T10:19:47;15.20;47.90
50067;DHT22;35952;52.524;13.340;2023-04-25T10:22:20;14.80;47.00
50067;DHT22;35952;52.524;13.340;2023-04-25T10:24:49;14.50;48.80
50067;DHT22;35952;52.524;13.340;2023-04-25T10:27:16;14.50;49.10
50067;DHT22;35952;52.524;13.340;2023-04-25T10:29:42;14.60;49.70
50067;DHT22;35952;52.524;13.340;2023-04-25T10:32:09;14.40;48.50
50067;DHT22;35952;52.524;13.340;2023-04-25T10:34:42;14.20;48.70
50067;DHT22;35952;52.524;13.340;2023-04-25T10:37:09;14.00;49.00
50067;DHT22;35952;52.524;13.340;2023-04-25T10:39:36;14.30;49.90
50067;DHT22;35952;52.524;13.340;2023-04-25T10:42:03;14.40;48.80
50067;DHT22;35952;52.524;13.340;2023-04-25T10:44:29;14.30;48.70
50067;DHT22;35952;52.524;13.340;2023-04-25T10:46:56;14.10;49.50
50067;DHT22;35952;52.524;13.340;2023-04-25T10:49:42;14.00;49.50
50067;DHT22;35952;52.524;13.340;2023-04-25T10:52:17;14.30;50.60
50067;DHT22;35952;52.524;13.340;2023-04-25T10:57:31;14.00;49.30
50067;DHT22;35952;52.524;13.340;2023-04-25T11:00:01;13.90;51.20
50067;DHT22;35952;52.524;13.340;2023-04-25T11:02:38;14.70;49.90
50067;DHT22;35952;52.524;13.340;2023-04-25T11:05:06;15.00;48.10
50067;DHT22;35952;52.524;13.340;2023-04-25T11:07:38;15.10;47.30
50067;DHT22;35952;52.524;13.340;2023-04-25T11:10:05;14.50;47.40
50067;DHT22;35952;52.524;13.340;2023-04-25T11:12:31;14.00;48.50
50067;DHT22;35952;52.524;13.340;2023-04-25T11:15:01;13.50;48.90
50067;DHT22;35952;52.524;13.340;2023-04-25T11:17:28;13.10;50.30
50067;DHT22;35952;52.524;13.340;2023-04-25T11:19:53;12.70;51.30
50067;DHT22;35952;52.524;13.340;2023-04-25T11:22:21;12.40;53.20
50067;DHT22;35952;52.524;13.340;2023-04-25T11:24:47;12.40;52.80
50067;DHT22;35952;52.524;13.340;2023-04-25T11:27:12;12.50;51.90
50067;DHT22;35952;52.524;13.340;2023-04-25T11:29:38;12.50;50.40
50067;DHT22;35952;52.524;13.340;2023-04-25T11:32:04;12.60;50.40
50067;DHT22;35952;52.524;13.340;2023-04-25T11:34:31;12.50;48.70
50067;DHT22;35952;52.524;13.340;2023-04-25T11:36:58;12.40;49.00
50067;DHT22;35952;52.524;13.340;2023-04-25T11:39:25;12.40;48.80
50067;DHT22;35952;52.524;13.340;2023-04-25T11:41:51;12.30;48.10
50067;DHT22;35952;52.524;13.340;2023-04-25T11:44:18;12.20;48.30
50067;DHT22;35952;52.524;13.340;2023-04-25T11:46:44;12.30;48.70
50067;DHT22;35952;52.524;13.340;2023-04-25T11:49:10;12.60;48.90
50067;DHT22;35952;52.524;13.340;2023-04-25T11:51:46;12.60;48.30
50067;DHT22;35952;52.524;13.340;2023-04-25T11:54:12;12.70;49.20
50067;DHT22;35952;52.524;13.340;2023-04-25T11:56:41;12.70;49.00
50067;DHT22;35952;52.524;13.340;2023-04-25T11:59:07;12.80;48.80
50067;DHT22;35952;52.524;13.340;2023-04-25T12:01:35;12.90;49.10
50067;DHT22;35952;52.524;13.340;2023-04-25T12:04:14;13.10;49.20
50067;DHT22;35952;52.524;13.340;2023-04-25T12:06:41;13.20;48.70
50067;DHT22;35952;52.524;13.340;2023-04-25T12:09:09;13.40;49.50
50067;DHT22;35952;52.524;13.340;2023-04-25T12:11:46;13.40;48.70
50067;DHT22;35952;52.524;13.340;2023-04-25T12:14:27;13.30;49.70
50067;DHT22;35952;52.524;13.340;2023-04-25T12:16:58;13.20;48.90
50067;DHT22;35952;52.524;13.340;2023-04-25T12:19:24;13.30;48.70
50067;DHT22;35952;52.524;13.340;2023-04-25T12:21:51;13.20;47.00
50067;DHT22;35952;52.524;13.340;2023-04-25T12:24:18;13.10;47.90
50067;DHT22;35952;52.524;13.340;2023-04-25T12:26:49;13.20;47.80
50067;DHT22;35952;52.524;13.340;2023-04-25T12:29:25;13.30;47.50
50067;DHT22;35952;52.524;13.340;2023-04-25T12:31:52;13.80;46.30
50067;DHT22;35952;52.524;13.340;2023-04-25T12:34:19;14.80;46.20
50067;DHT22;35952;52.524;13.340;2023-04-25T12:36:45;15.50;45.00
50067;DHT22;35952;52.524;13.340;2023-04-25T12:39:23;15.70;43.40
50067;DHT22;35952;52.524;13.340;2023-04-25T12:41:51;15.40;44.10
50067;DHT22;35952;52.524;13.340;2023-04-25T12:44:20;14.90;44.30
50067;DHT22;35952;52.524;13.340;2023-04-25T12:46:46;14.00;45.30
50067;DHT22;35952;52.524;13.340;2023-04-25T12:49:12;13.50;46.20
50067;DHT22;35952;52.524;13.340;2023-04-25T12:51:38;13.40;48.10
50067;DHT22;35952;52.524;13.340;2023-04-25T12:54:05;13.50;46.70
50067;DHT22;35952;52.524;13.340;2023-04-25T12:56:32;13.40;46.30
50067;DHT22;35952;52.524;13.340;2023-04-25T12:58:58;13.30;46.60
50067;DHT22;35952;52.524;13.340;2023-04-25T13:01:25;13.20;47.10
50067;DHT22;35952;52.524;13.340;2023-04-25T13:03:51;13.20;47.20
50067;DHT22;35952;52.524;13.340;2023-04-25T13:06:19;13.30;47.40
50067;DHT22;35952;52.524;13.340;2023-04-25T13:08:44;13.60;47.20
50067;DHT22;35952;52.524;13.340;2023-04-25T13:11:10;14.80;46.70
50067;DHT22;35952;52.524;13.340;2023-04-25T13:13:36;16.70;45.20
50067;DHT22;35952;52.524;13.340;2023-04-25T13:16:02;18.50;41.90
50067;DHT22;35952;52.524;13.340;2023-04-25T13:18:29;20.80;39.50
50067;DHT22;35952;52.524;13.340;2023-04-25T13:20:55;22.30;36.60
50067;DHT22;35952;52.524;13.340;2023-04-25T13:23:21;21.70;34.10
50067;DHT22;35952;52.524;13.340;2023-04-25T13:25:47;19.70;35.40
50067;DHT22;35952;52.524;13.340;2023-04-25T13:28:13;17.90;38.30
50067;DHT22;35952;52.524;13.340;2023-04-25T13:30:39;17.00;39.80
50067;DHT22;35952;52.524;13.340;2023-04-25T13:33:05;16.10;41.90
50067;DHT22;35952;52.524;13.340;2023-04-25T13:35:31;15.70;43.30
50067;DHT22;35952;52.524;13.340;2023-04-25T13:37:56;15.10;43.80
50067;DHT22;35952;52.524;13.340;2023-04-25T13:40:22;14.40;44.70
50067;DHT22;35952;52.524;13.340;2023-04-25T13:42:47;14.00;46.40
50067;DHT22;35952;52.524;13.340;2023-04-25T13:45:13;13.90;46.60
50067;DHT22;35952;52.524;13.340;2023-04-25T13:47:38;14.20;47.20
50067;DHT22;35952;52.524;13.340;2023-04-25T13:50:05;14.50;47.00
50067;DHT22;35952;52.524;13.340;2023-04-25T13:52:31;15.20;46.50
50067;DHT22;35952;52.524;13.340;2023-04-25T13:54:57;15.30;45.40
50067;DHT22;35952;52.524;13.340;2023-04-25T13:57:23;15.00;45.20
50067;DHT22;35952;52.524;13.340;2023-04-25T13:59:48;14.60;45.80
50067;DHT22;35952;52.524;13.340;2023-04-25T14:02:14;14.10;46.70
50067;DHT22;35952;52.524;13.340;2023-04-25T14:04:40;13.70;48.60
50067;DHT22;35952;52.524;13.340;2023-04-25T14:07:06;13.40;48.50
50067;DHT22;35952;52.524;13.340;2023-04-25T14:09:31;12.90;49.10
50067;DHT22;35952;52.524;13.340;2023-04-25T14:11:57;12.60;49.70
50067;DHT22;35952;52.524;13.340;2023-04-25T14:14:22;12.50;50.80
50067;DHT22;35952;52.524;13.340;2023-04-25T14:16:49;12.50;50.60
50067;DHT22;35952;52.524;13.340;2023-04-25T14:19:18;12.40;50.90
50067;DHT22;35952;52.524;13.340;2023-04-25T14:21:43;12.20;51.00
50067;DHT22;35952;52.524;13.340;2023-04-25T14:24:10;12.20;51.60
50067;DHT22;35952;52.524;13.340;2023-04-25T14:26:38;12.20;52.00
50067;DHT22;35952;52.524;13.340;2023-04-25T14:29:05;12.30;51.40
50067;DHT22;35952;52.524;13.340;2023-04-25T14:31:34;12.40;51.70
50067;DHT22;35952;52.524;13.340;2023-04-25T14:34:00;12.40;50.90
50067;DHT22;35952;52.524;13.340;2023-04-25T14:36:27;12.50;50.90
50067;DHT22;35952;52.524;13.340;2023-04-25T14:38:53;12.70;51.30
50067;DHT22;35952;52.524;13.340;2023-04-25T14:41:18;13.10;50.40
50067;DHT22;35952;52.524;13.340;2023-04-25T14:43:44;13.50;50.00
50067;DHT22;35952;52.524;13.340;2023-04-25T14:46:11;13.50;49.70
50067;DHT22;35952;52.524;13.340;2023-04-25T14:48:36;13.30;50.00
50067;DHT22;35952;52.524;13.340;2023-04-25T14:51:02;12.90;51.00
50067;DHT22;35952;52.524;13.340;2023-04-25T14:53:27;12.60;51.20
50067;DHT22;35952;52.524;13.340;2023-04-25T14:55:53;12.30;52.00
50067;DHT22;35952;52.524;13.340;2023-04-25T14:58:19;12.20;53.50
50067;DHT22;35952;52.524;13.340;2023-04-25T15:00:45;12.00;54.10
50067;DHT22;35952;52.524;13.340;2023-04-25T15:03:11;11.80;53.90
50067;DHT22;35952;52.524;13.340;2023-04-25T15:05:38;11.70;54.40
50067;DHT22;35952;52.524;13.340;2023-04-25T15:08:04;11.50;54.90
50067;DHT22;35952;52.524;13.340;2023-04-25T15:10:30;11.50;55.20
50067;DHT22;35952;52.524;13.340;2023-04-25T15:12:55;11.40;55.70
50067;DHT22;35952;52.524;13.340;2023-04-25T15:15:21;11.50;55.60
50067;DHT22;35952;52.524;13.340;2023-04-25T15:17:47;11.60;55.70
50067;DHT22;35952;52.524;13.340;2023-04-25T15:20:13;11.60;55.30